Time;durP1;ratioP1;P1;durP2;ratioP2;P2;SDS_P1;SDS_P2;PMS_P1;PMS_P2;Temp;Humidity;BMP_temperature;BMP_pressure;BME280_temperature;BME280_humidity;BME280_pressure;Samples;Min_cycle;Max_cycle;Signal;HPM_P1;HPM_P2
2024/03/06 00:00:25;;;;;;;76.75;39.97;;;;;;;;;;5073741;28;20189;-73
2024/03/06 00:02:51;;;;;;;78.85;41.17;;;;;;;;;;5063056;28;20267;-73
2024/03/06 00:05:17;;;;;;;77.78;41.97;;;;;;;;;;5061373;28;20635;-73
2024/03/06 00:07:42;;;;;;;74.28;41.60;;;;;;;;;;5058503;28;20200;-73
2024/03/06 00:10:08;;;;;;;73.25;40.15;;;;;;;;;;5074333;28;20267;-72
2024/03/06 00:12:34;;;;;;;82.95;43.38;;;;;;;;;;5050139;28;20242;-73
2024/03/06 00:15:00;;;;;;;81.40;43.08;;;;;;;;;;5065500;28;20588;-73
2024/03/06 00:17:25;;;;;;;77.87;40.40;;;;;;;;;;5068606;28;20188;-73
2024/03/06 00:19:51;;;;;;;78.00;42.08;;;;;;;;;;5063411;28;20220;-73
2024/03/06 00:22:17;;;;;;;78.65;42.25;;;;;;;;;;5067886;28;20212;-73
2024/03/06 00:24:42;;;;;;;82.93;42.67;;;;;;;;;;5045723;28;20243;-73
2024/03/06 00:27:07;;;;;;;78.13;40.47;;;;;;;;;;5085028;28;20200;-73
2024/03/06 00:29:36;;;;;;;77.20;41.78;;;;;;;;;;5069329;28;20229;-73
2024/03/06 00:32:02;;;;;;;80.47;41.15;;;;;;;;;;5052570;28;20185;-73
2024/03/06 00:34:27;;;;;;;80.65;41.63;;;;;;;;;;5068465;28;20271;-73
2024/03/06 00:36:54;;;;;;;74.83;41.77;;;;;;;;;;5068783;28;20192;-72
2024/03/06 00:39:19;;;;;;;80.25;42.05;;;;;;;;;;5056301;28;20189;-73
2024/03/06 00:41:45;;;;;;;79.30;41.90;;;;;;;;;;5066522;28;20268;-73
2024/03/06 00:44:10;;;;;;;78.95;41.45;;;;;;;;;;5059169;28;20656;-73
2024/03/06 00:46:36;;;;;;;81.35;42.15;;;;;;;;;;5038033;28;20185;-73
2024/03/06 00:49:02;;;;;;;86.53;42.83;;;;;;;;;;5063333;28;20195;-73
2024/03/06 00:51:27;;;;;;;84.90;43.08;;;;;;;;;;5048815;28;20195;-73
2024/03/06 00:53:53;;;;;;;89.05;44.15;;;;;;;;;;5066852;28;20224;-73
2024/03/06 00:56:18;;;;;;;88.53;41.53;;;;;;;;;;5069680;28;20221;-73
2024/03/06 00:58:43;;;;;;;82.53;40.85;;;;;;;;;;5066966;28;20521;-73
2024/03/06 01:01:09;;;;;;;86.40;42.40;;;;;;;;;;5068238;28;20259;-72
2024/03/06 01:03:34;;;;;;;79.38;40.60;;;;;;;;;;5061193;28;20191;-72
2024/03/06 01:06:00;;;;;;;86.40;42.72;;;;;;;;;;5049339;28;20542;-73
2024/03/06 01:08:25;;;;;;;80.25;43.35;;;;;;;;;;5041481;28;20187;-73
2024/03/06 01:10:51;;;;;;;84.18;42.35;;;;;;;;;;5066971;28;20592;-73
2024/03/06 01:13:20;;;;;;;79.78;40.72;;;;;;;;;;5067505;28;20698;-73
2024/03/06 01:15:46;;;;;;;83.70;40.88;;;;;;;;;;5063935;28;20185;-73
2024/03/06 01:18:11;;;;;;;77.10;40.67;;;;;;;;;;5068263;28;20189;-73
2024/03/06 01:20:37;;;;;;;79.88;43.15;;;;;;;;;;5068712;28;20204;-72
2024/03/06 01:23:03;;;;;;;77.50;41.80;;;;;;;;;;5073749;28;20196;-71
2024/03/06 01:25:28;;;;;;;88.40;41.75;;;;;;;;;;5066582;28;20216;-73
2024/03/06 01:27:54;;;;;;;85.53;43.25;;;;;;;;;;5068754;28;20704;-74
2024/03/06 01:30:19;;;;;;;83.30;43.05;;;;;;;;;;5061367;28;20272;-73
2024/03/06 01:32:44;;;;;;;84.90;42.67;;;;;;;;;;5070009;28;20359;-73
2024/03/06 01:35:10;;;;;;;86.50;41.55;;;;;;;;;;5068370;28;20267;-73
2024/03/06 01:37:35;;;;;;;91.18;42.85;;;;;;;;;;5069051;28;20220;-73
2024/03/06 01:40:04;;;;;;;84.93;44.00;;;;;;;;;;5048309;28;20631;-73
2024/03/06 01:42:29;;;;;;;91.80;43.17;;;;;;;;;;5055284;28;20304;-73
2024/03/06 01:44:55;;;;;;;87.60;42.78;;;;;;;;;;5068292;28;20271;-73
2024/03/06 01:47:20;;;;;;;88.20;43.92;;;;;;;;;;5054042;28;20281;-73
2024/03/06 01:49:46;;;;;;;91.20;44.08;;;;;;;;;;5059680;28;20184;-73
2024/03/06 01:52:14;;;;;;;90.25;44.42;;;;;;;;;;5068662;28;20189;-74
2024/03/06 01:54:41;;;;;;;92.07;43.60;;;;;;;;;;5076556;28;20599;-73
2024/03/06 01:57:08;;;;;;;88.93;43.55;;;;;;;;;;5055887;28;20224;-72
2024/03/06 01:59:33;;;;;;;89.78;41.75;;;;;;;;;;5069067;28;20185;-73
2024/03/06 02:02:01;;;;;;;90.97;42.92;;;;;;;;;;5049769;28;20226;-72
2024/03/06 02:04:28;;;;;;;87.80;43.78;;;;;;;;;;5059281;28;20193;-71
2024/03/06 02:06:54;;;;;;;81.10;41.53;;;;;;;;;;5068173;28;20309;-72
2024/03/06 02:09:19;;;;;;;90.75;43.28;;;;;;;;;;5041862;28;20645;-73
2024/03/06 02:11:45;;;;;;;89.82;42.80;;;;;;;;;;5058630;28;20181;-73
2024/03/06 02:14:11;;;;;;;85.37;41.30;;;;;;;;;;5060622;28;20220;-72
2024/03/06 02:16:38;;;;;;;90.78;44.08;;;;;;;;;;5060190;28;20188;-73
2024/03/06 02:19:04;;;;;;;90.20;42.58;;;;;;;;;;5060014;28;20209;-72
2024/03/06 02:21:30;;;;;;;95.82;43.70;;;;;;;;;;5061299;28;20244;-72
2024/03/06 02:23:55;;;;;;;76.63;41.35;;;;;;;;;;5062174;28;20200;-72
2024/03/06 02:26:21;;;;;;;90.10;44.80;;;;;;;;;;5061961;28;20189;-73
2024/03/06 02:28:52;;;;;;;85.43;43.53;;;;;;;;;;5063723;28;20184;-72
2024/03/06 02:31:18;;;;;;;88.22;42.97;;;;;;;;;;5059271;28;20188;-72
2024/03/06 02:33:50;;;;;;;89.20;43.47;;;;;;;;;;5056029;28;20194;-72
2024/03/06 02:36:18;;;;;;;95.05;42.40;;;;;;;;;;5055482;28;20699;-72
2024/03/06 02:38:44;;;;;;;97.10;44.03;;;;;;;;;;5061495;28;20216;-72
2024/03/06 02:41:11;;;;;;;94.60;42.70;;;;;;;;;;5062940;28;20741;-72
2024/03/06 02:43:37;;;;;;;89.32;43.92;;;;;;;;;;5067175;28;20193;-72
2024/03/06 02:46:03;;;;;;;86.15;43.13;;;;;;;;;;5057009;28;20232;-72
2024/03/06 02:48:29;;;;;;;87.22;41.03;;;;;;;;;;5060822;28;20626;-72
2024/03/06 02:50:55;;;;;;;90.97;43.10;;;;;;;;;;5079145;28;20206;-72
2024/03/06 02:53:21;;;;;;;86.22;43.25;;;;;;;;;;5063876;28;20184;-72
2024/03/06 02:55:47;;;;;;;92.80;45.03;;;;;;;;;;5063244;28;20241;-72
2024/03/06 02:58:12;;;;;;;92.95;42.60;;;;;;;;;;5064653;28;20692;-72
2024/03/06 03:00:40;;;;;;;95.47;43.80;;;;;;;;;;5056414;28;20205;-72
2024/03/06 03:03:06;;;;;;;87.28;41.45;;;;;;;;;;5064578;28;20193;-73
2024/03/06 03:05:33;;;;;;;91.10;42.80;;;;;;;;;;5069785;28;20201;-73
2024/03/06 03:07:59;;;;;;;85.25;42.55;;;;;;;;;;5086911;28;20215;-73
2024/03/06 03:10:24;;;;;;;95.60;45.50;;;;;;;;;;5063429;28;20185;-73
2024/03/06 03:12:51;;;;;;;91.07;46.30;;;;;;;;;;5064118;28;20191;-71
2024/03/06 03:15:16;;;;;;;90.30;44.72;;;;;;;;;;5073508;28;20711;-72
2024/03/06 03:17:42;;;;;;;99.47;43.05;;;;;;;;;;5066677;28;20196;-72
2024/03/06 03:20:10;;;;;;;93.68;44.25;;;;;;;;;;5059967;28;20205;-72
2024/03/06 03:22:38;;;;;;;97.07;44.08;;;;;;;;;;5071014;28;20205;-73
2024/03/06 03:25:07;;;;;;;95.35;43.33;;;;;;;;;;5068214;28;20185;-73
2024/03/06 03:27:33;;;;;;;97.05;44.80;;;;;;;;;;5064414;28;20196;-73
2024/03/06 03:29:58;;;;;;;91.68;44.90;;;;;;;;;;5061418;28;20188;-73
2024/03/06 03:32:24;;;;;;;92.38;44.63;;;;;;;;;;5070407;28;20196;-73
2024/03/06 03:34:49;;;;;;;89.40;43.50;;;;;;;;;;5056899;28;20578;-72
2024/03/06 03:37:15;;;;;;;96.47;43.90;;;;;;;;;;5070091;28;20200;-72
2024/03/06 03:39:42;;;;;;;97.82;45.25;;;;;;;;;;5061388;28;20527;-72
2024/03/06 03:42:07;;;;;;;98.45;46.03;;;;;;;;;;5069937;28;20675;-72
2024/03/06 03:44:33;;;;;;;104.60;44.90;;;;;;;;;;5067280;28;20222;-72
2024/03/06 03:46:58;;;;;;;94.82;45.53;;;;;;;;;;5076051;28;20270;-72
2024/03/06 03:49:24;;;;;;;100.10;43.55;;;;;;;;;;5071145;28;20231;-72
2024/03/06 03:51:49;;;;;;;105.25;46.33;;;;;;;;;;5069243;28;20197;-72
2024/03/06 03:54:15;;;;;;;93.40;45.00;;;;;;;;;;5035858;28;20589;-72
2024/03/06 03:56:40;;;;;;;89.20;41.97;;;;;;;;;;5066678;28;20188;-72
2024/03/06 03:59:05;;;;;;;88.50;43.97;;;;;;;;;;5070528;28;20192;-72
2024/03/06 04:01:31;;;;;;;96.47;44.47;;;;;;;;;;5063811;28;20196;-72
2024/03/06 04:03:56;;;;;;;97.28;45.00;;;;;;;;;;5067338;28;20196;-72
2024/03/06 04:06:22;;;;;;;92.40;45.15;;;;;;;;;;5056554;28;20262;-71
2024/03/06 04:08:48;;;;;;;90.47;44.47;;;;;;;;;;5078016;28;20260;-72
2024/03/06 04:11:14;;;;;;;98.30;45.60;;;;;;;;;;5068514;28;20185;-71
2024/03/06 04:13:39;;;;;;;99.32;46.15;;;;;;;;;;5066194;28;20500;-73
2024/03/06 04:16:05;;;;;;;100.03;47.88;;;;;;;;;;5064817;28;20188;-72
2024/03/06 04:18:35;;;;;;;92.65;44.03;;;;;;;;;;5070417;28;20202;-72
2024/03/06 04:21:10;;;;;;;109.85;44.92;;;;;;;;;;5063684;28;20676;-72
2024/03/06 04:23:36;;;;;;;91.75;43.65;;;;;;;;;;5064534;28;20247;-72
2024/03/06 04:26:03;;;;;;;93.78;44.72;;;;;;;;;;5085051;28;20271;-72
2024/03/06 04:28:28;;;;;;;88.57;43.25;;;;;;;;;;5060529;28;20218;-72
2024/03/06 04:30:54;;;;;;;91.15;42.88;;;;;;;;;;5070208;28;20212;-72
2024/03/06 04:33:20;;;;;;;98.68;43.50;;;;;;;;;;5058612;28;20625;-72
2024/03/06 04:35:45;;;;;;;96.88;44.17;;;;;;;;;;5045698;28;20290;-72
2024/03/06 04:38:11;;;;;;;93.88;43.35;;;;;;;;;;5062908;28;20558;-72
2024/03/06 04:40:36;;;;;;;90.05;43.75;;;;;;;;;;5064154;28;20275;-72
2024/03/06 04:43:02;;;;;;;89.80;43.08;;;;;;;;;;5066345;28;20200;-72
2024/03/06 04:45:28;;;;;;;85.97;43.70;;;;;;;;;;5060567;28;20210;-72
2024/03/06 04:47:54;;;;;;;86.97;42.35;;;;;;;;;;5060359;28;20193;-72
2024/03/06 04:50:20;;;;;;;83.20;41.10;;;;;;;;;;5057978;28;20565;-72
2024/03/06 04:52:45;;;;;;;94.03;43.38;;;;;;;;;;5068276;28;20189;-72
2024/03/06 04:55:12;;;;;;;91.95;41.70;;;;;;;;;;5069011;28;20187;-72
2024/03/06 04:57:38;;;;;;;88.47;43.53;;;;;;;;;;5067483;28;20241;-73
2024/03/06 05:00:08;;;;;;;91.47;43.83;;;;;;;;;;5070768;28;20203;-73
2024/03/06 05:02:35;;;;;;;92.13;43.25;;;;;;;;;;5062600;28;20205;-72
2024/03/06 05:05:02;;;;;;;87.75;44.53;;;;;;;;;;5054360;28;20348;-72
2024/03/06 05:07:29;;;;;;;89.15;42.70;;;;;;;;;;5062803;28;20193;-72
2024/03/06 05:09:54;;;;;;;90.28;42.03;;;;;;;;;;5058473;28;20193;-72
2024/03/06 05:12:20;;;;;;;86.55;42.72;;;;;;;;;;5064204;28;20507;-72
2024/03/06 05:14:45;;;;;;;92.88;43.65;;;;;;;;;;5062746;28;20189;-72
2024/03/06 05:17:10;;;;;;;95.15;42.90;;;;;;;;;;5058445;28;20192;-73
2024/03/06 05:19:37;;;;;;;98.38;43.88;;;;;;;;;;5067073;28;20216;-73
2024/03/06 05:22:03;;;;;;;87.60;40.72;;;;;;;;;;5064005;28;20240;-72
2024/03/06 05:24:29;;;;;;;89.32;42.90;;;;;;;;;;5069677;28;20216;-72
2024/03/06 05:26:54;;;;;;;90.75;42.53;;;;;;;;;;5069621;28;20238;-72
2024/03/06 05:29:20;;;;;;;93.47;42.60;;;;;;;;;;5059702;28;20189;-72
2024/03/06 05:31:45;;;;;;;89.97;43.95;;;;;;;;;;5064905;28;20215;-72
2024/03/06 05:34:10;;;;;;;91.78;43.72;;;;;;;;;;5053511;28;20195;-73
2024/03/06 05:36:36;;;;;;;91.80;42.53;;;;;;;;;;5068605;28;20199;-72
2024/03/06 05:39:05;;;;;;;84.35;41.60;;;;;;;;;;5077091;28;20197;-72
2024/03/06 05:41:31;;;;;;;86.28;44.47;;;;;;;;;;5063761;28;20213;-73
2024/03/06 05:43:57;;;;;;;87.13;43.50;;;;;;;;;;5065289;28;20185;-73
2024/03/06 05:46:22;;;;;;;90.95;42.58;;;;;;;;;;5047558;28;20281;-72
2024/03/06 05:48:48;;;;;;;93.75;42.88;;;;;;;;;;5056124;28;20221;-72
2024/03/06 05:51:13;;;;;;;84.25;43.92;;;;;;;;;;5065711;28;20186;-72
2024/03/06 05:53:40;;;;;;;90.32;43.65;;;;;;;;;;5066258;28;20276;-72
2024/03/06 05:56:06;;;;;;;86.07;43.42;;;;;;;;;;5064409;28;20213;-73
2024/03/06 05:58:32;;;;;;;86.68;43.05;;;;;;;;;;5064749;28;20715;-73
2024/03/06 06:00:58;;;;;;;92.38;42.22;;;;;;;;;;5068399;28;20335;-73
2024/03/06 06:03:23;;;;;;;77.60;40.17;;;;;;;;;;5061063;28;20280;-73
2024/03/06 06:05:48;;;;;;;81.32;40.45;;;;;;;;;;5067711;28;20581;-73
2024/03/06 06:08:14;;;;;;;81.25;40.20;;;;;;;;;;5057332;28;20534;-72
2024/03/06 06:10:39;;;;;;;77.37;40.37;;;;;;;;;;5062252;28;20182;-72
2024/03/06 06:13:05;;;;;;;91.40;42.27;;;;;;;;;;5062857;28;20204;-72
2024/03/06 06:15:31;;;;;;;84.70;42.07;;;;;;;;;;5061968;28;20192;-72
2024/03/06 06:17:56;;;;;;;78.43;39.27;;;;;;;;;;5055071;28;20181;-72
2024/03/06 06:20:22;;;;;;;75.60;39.70;;;;;;;;;;5061555;28;20602;-72
2024/03/06 06:22:47;;;;;;;77.90;41.00;;;;;;;;;;5069010;28;20217;-72
2024/03/06 06:25:13;;;;;;;71.30;38.90;;;;;;;;;;5059288;28;20193;-72
2024/03/06 06:27:38;;;;;;;76.57;40.67;;;;;;;;;;5071360;28;20221;-72
2024/03/06 06:30:05;;;;;;;74.03;39.00;;;;;;;;;;5062048;28;20234;-72
2024/03/06 06:32:30;;;;;;;82.27;40.53;;;;;;;;;;5061108;28;20649;-72
2024/03/06 06:34:56;;;;;;;81.37;41.37;;;;;;;;;;5060684;28;20244;-72
2024/03/06 06:37:21;;;;;;;71.57;37.13;;;;;;;;;;5070149;28;20185;-72
2024/03/06 06:39:48;;;;;;;71.20;39.93;;;;;;;;;;5067525;28;20196;-72
2024/03/06 06:42:13;;;;;;;83.77;41.97;;;;;;;;;;5065305;28;20637;-72
2024/03/06 06:44:39;;;;;;;74.10;39.67;;;;;;;;;;5049075;28;20208;-73
2024/03/06 06:47:04;;;;;;;76.97;40.57;;;;;;;;;;5061410;28;20338;-73
2024/03/06 06:49:30;;;;;;;80.00;40.20;;;;;;;;;;5063090;28;20604;-72
2024/03/06 06:51:55;;;;;;;76.25;38.65;;;;;;;;;;5044760;28;20173;-72
2024/03/06 06:54:21;;;;;;;77.70;38.83;;;;;;;;;;5074767;28;20264;-72
2024/03/06 06:56:46;;;;;;;72.07;39.67;;;;;;;;;;5067773;28;20199;-72
2024/03/06 06:59:13;;;;;;;69.40;39.50;;;;;;;;;;5070636;28;20216;-71
2024/03/06 07:01:40;;;;;;;68.80;39.57;;;;;;;;;;5073585;28;20288;-72
2024/03/06 07:04:06;;;;;;;70.77;38.93;;;;;;;;;;5078562;28;20263;-72
2024/03/06 07:06:31;;;;;;;72.87;40.73;;;;;;;;;;5075284;28;20238;-72
2024/03/06 07:08:57;;;;;;;73.17;40.67;;;;;;;;;;5078224;28;20184;-72
2024/03/06 07:11:23;;;;;;;76.90;40.33;;;;;;;;;;5062138;28;20218;-72
2024/03/06 07:13:48;;;;;;;69.70;41.25;;;;;;;;;;5054163;28;20193;-72
2024/03/06 07:16:14;;;;;;;72.67;40.83;;;;;;;;;;5066730;28;20580;-72
2024/03/06 07:18:40;;;;;;;75.50;41.77;;;;;;;;;;5060868;28;20596;-72
2024/03/06 07:21:05;;;;;;;69.70;40.77;;;;;;;;;;5069986;28;20238;-73
2024/03/06 07:23:31;;;;;;;69.70;40.27;;;;;;;;;;5072577;28;20711;-72
2024/03/06 07:25:57;;;;;;;73.47;41.37;;;;;;;;;;5055455;28;20518;-72
2024/03/06 07:28:25;;;;;;;73.35;41.67;;;;;;;;;;5060938;28;20220;-72
2024/03/06 07:30:51;;;;;;;73.93;40.63;;;;;;;;;;5069520;28;20196;-72
2024/03/06 07:33:16;;;;;;;67.97;38.50;;;;;;;;;;5067824;28;20203;-72
2024/03/06 07:35:42;;;;;;;71.37;39.53;;;;;;;;;;5063355;28;20231;-72
2024/03/06 07:38:07;;;;;;;74.30;40.13;;;;;;;;;;5070112;28;20211;-70
2024/03/06 07:40:33;;;;;;;72.73;39.20;;;;;;;;;;5069652;28;20652;-71
2024/03/06 07:42:59;;;;;;;71.90;39.67;;;;;;;;;;5048229;28;20308;-71
2024/03/06 07:45:26;;;;;;;80.03;40.25;;;;;;;;;;5051064;28;20209;-71
2024/03/06 07:47:51;;;;;;;69.80;37.17;;;;;;;;;;5063271;28;20656;-72
2024/03/06 07:50:18;;;;;;;73.53;38.83;;;;;;;;;;5067479;28;20196;-72
2024/03/06 07:52:45;;;;;;;65.03;38.47;;;;;;;;;;5053922;28;20196;-72
2024/03/06 07:55:11;;;;;;;70.45;40.08;;;;;;;;;;5057421;28;20201;-72
2024/03/06 07:57:37;;;;;;;75.13;39.67;;;;;;;;;;5069396;28;20192;-72
2024/03/06 08:00:09;;;;;;;72.97;38.70;;;;;;;;;;5045345;28;20197;-72
2024/03/06 08:02:35;;;;;;;79.60;41.05;;;;;;;;;;5064543;28;20590;-72
2024/03/06 08:05:01;;;;;;;79.53;42.55;;;;;;;;;;5066641;28;20193;-72
2024/03/06 08:07:26;;;;;;;79.47;41.78;;;;;;;;;;5059451;28;20216;-72
2024/03/06 08:09:51;;;;;;;77.82;42.42;;;;;;;;;;5070719;28;20215;-72
2024/03/06 08:12:17;;;;;;;77.72;41.30;;;;;;;;;;5077448;28;20270;-72
2024/03/06 08:14:43;;;;;;;81.72;41.70;;;;;;;;;;5071292;28;20197;-72
2024/03/06 08:17:09;;;;;;;80.32;41.70;;;;;;;;;;5070433;28;20185;-72
2024/03/06 08:19:35;;;;;;;88.07;43.13;;;;;;;;;;5063721;28;20227;-72
2024/03/06 08:22:01;;;;;;;86.18;42.30;;;;;;;;;;5069954;28;20228;-72
2024/03/06 08:24:27;;;;;;;74.82;40.20;;;;;;;;;;5069831;28;20584;-72
2024/03/06 08:26:52;;;;;;;76.88;40.25;;;;;;;;;;5061722;28;20261;-72
2024/03/06 08:29:17;;;;;;;79.63;40.63;;;;;;;;;;5064032;28;20185;-72
2024/03/06 08:31:43;;;;;;;68.53;38.35;;;;;;;;;;5063609;28;20202;-72
2024/03/06 08:34:08;;;;;;;72.72;39.60;;;;;;;;;;5059114;28;20567;-72
2024/03/06 08:36:34;;;;;;;69.53;38.03;;;;;;;;;;5058100;28;20207;-72
2024/03/06 08:38:59;;;;;;;73.20;40.67;;;;;;;;;;5065290;28;20200;-72
2024/03/06 08:41:25;;;;;;;74.72;38.53;;;;;;;;;;5063532;28;20219;-72
2024/03/06 08:43:51;;;;;;;78.85;40.60;;;;;;;;;;5070166;28;20188;-72
2024/03/06 08:46:16;;;;;;;78.10;40.80;;;;;;;;;;5060879;28;20217;-72
2024/03/06 08:48:41;;;;;;;75.05;40.72;;;;;;;;;;5068872;28;20183;-72
2024/03/06 08:51:10;;;;;;;80.03;39.75;;;;;;;;;;5057658;28;20195;-72
2024/03/06 08:53:36;;;;;;;73.70;39.63;;;;;;;;;;5060511;28;20180;-72
2024/03/06 08:56:02;;;;;;;69.60;37.95;;;;;;;;;;5056100;28;20188;-72
2024/03/06 08:58:27;;;;;;;73.63;39.50;;;;;;;;;;5068481;28;20215;-72
2024/03/06 09:00:53;;;;;;;77.72;37.97;;;;;;;;;;5066770;28;20181;-72
2024/03/06 09:03:19;;;;;;;73.07;38.97;;;;;;;;;;5067315;28;20187;-72
2024/03/06 09:05:44;;;;;;;76.38;40.08;;;;;;;;;;5039099;28;20189;-72
2024/03/06 09:08:10;;;;;;;71.88;38.67;;;;;;;;;;5066574;28;20216;-72
2024/03/06 09:10:36;;;;;;;78.32;39.65;;;;;;;;;;5068607;28;20275;-73
2024/03/06 09:13:01;;;;;;;76.55;40.00;;;;;;;;;;5049982;28;20700;-73
2024/03/06 09:15:27;;;;;;;75.72;38.65;;;;;;;;;;5068367;28;20199;-73
2024/03/06 09:17:52;;;;;;;71.90;37.13;;;;;;;;;;5060673;28;20196;-73
2024/03/06 09:20:18;;;;;;;66.82;37.28;;;;;;;;;;5058868;28;20205;-73
2024/03/06 09:22:43;;;;;;;70.82;37.17;;;;;;;;;;5051744;28;20216;-73
2024/03/06 09:25:09;;;;;;;65.82;35.25;;;;;;;;;;5063902;28;20207;-72
2024/03/06 09:27:35;;;;;;;64.28;36.65;;;;;;;;;;5066969;28;20259;-73
2024/03/06 09:30:01;;;;;;;59.42;35.30;;;;;;;;;;5059991;28;20272;-72
2024/03/06 09:32:26;;;;;;;62.20;33.08;;;;;;;;;;5062869;28;20181;-72
2024/03/06 09:34:52;;;;;;;59.63;33.22;;;;;;;;;;5060947;28;20237;-72
2024/03/06 09:37:18;;;;;;;59.80;34.38;;;;;;;;;;5055588;28;20181;-72
2024/03/06 09:39:47;;;;;;;61.35;34.92;;;;;;;;;;5056076;28;20182;-72
2024/03/06 09:42:13;;;;;;;59.72;33.08;;;;;;;;;;5062387;28;20204;-72
2024/03/06 09:44:39;;;;;;;65.80;35.30;;;;;;;;;;5084807;28;20176;-72
2024/03/06 09:47:06;;;;;;;59.97;34.00;;;;;;;;;;5063950;28;20242;-72
2024/03/06 09:49:33;;;;;;;63.15;35.03;;;;;;;;;;5054760;28;20177;-72
2024/03/06 09:52:00;;;;;;;65.82;35.17;;;;;;;;;;5061683;28;20185;-72
2024/03/06 09:54:26;;;;;;;68.43;34.85;;;;;;;;;;5052723;28;20272;-72
2024/03/06 09:56:52;;;;;;;61.15;35.03;;;;;;;;;;5065192;28;20184;-72
2024/03/06 09:59:18;;;;;;;59.85;34.22;;;;;;;;;;5059036;28;20216;-72
2024/03/06 10:01:57;;;;;;;63.03;35.25;;;;;;;;;;5058168;28;20201;-72
2024/03/06 10:04:27;;;;;;;67.70;37.95;;;;;;;;;;5057960;28;20299;-73
2024/03/06 10:06:54;;;;;;;69.80;38.47;;;;;;;;;;5077204;28;20215;-71
2024/03/06 10:09:20;;;;;;;73.80;38.97;;;;;;;;;;5061299;28;20181;-73
2024/03/06 10:11:46;;;;;;;71.10;37.13;;;;;;;;;;5060194;28;20204;-72
2024/03/06 10:14:12;;;;;;;71.35;39.20;;;;;;;;;;5063892;28;20200;-72
2024/03/06 10:16:51;;;;;;;68.32;39.05;;;;;;;;;;5059629;28;20217;-72
2024/03/06 10:19:18;;;;;;;70.57;38.65;;;;;;;;;;5055827;28;20675;-72
2024/03/06 10:21:48;;;;;;;68.57;39.28;;;;;;;;;;5060319;28;20629;-71
2024/03/06 10:24:20;;;;;;;66.05;38.08;;;;;;;;;;5059209;28;20188;-72
2024/03/06 10:26:46;;;;;;;66.03;36.80;;;;;;;;;;5062437;28;20207;-72
2024/03/06 10:29:15;;;;;;;68.88;36.55;;;;;;;;;;5063303;28;20276;-72
2024/03/06 10:31:41;;;;;;;68.70;37.65;;;;;;;;;;5061195;28;20189;-72
2024/03/06 10:34:07;;;;;;;62.20;36.47;;;;;;;;;;5054405;28;20177;-73
2024/03/06 10:36:32;;;;;;;65.32;36.17;;;;;;;;;;5066177;28;20207;-73
2024/03/06 10:39:01;;;;;;;63.05;37.40;;;;;;;;;;5059240;28;20192;-73
2024/03/06 10:41:32;;;;;;;66.78;35.95;;;;;;;;;;5059304;28;20201;-73
2024/03/06 10:43:59;;;;;;;66.97;36.22;;;;;;;;;;5063094;28;20189;-73
2024/03/06 10:46:27;;;;;;;64.20;37.00;;;;;;;;;;5066241;28;20181;-72
2024/03/06 10:48:55;;;;;;;61.92;34.22;;;;;;;;;;5067087;28;20582;-72
2024/03/06 10:51:22;;;;;;;69.30;38.58;;;;;;;;;;5066942;28;20209;-72
2024/03/06 10:53:49;;;;;;;71.47;38.80;;;;;;;;;;5064141;28;20231;-72
2024/03/06 10:56:19;;;;;;;57.70;36.00;;;;;;;;;;5066536;28;20189;-72
2024/03/06 10:58:47;;;;;;;64.10;37.47;;;;;;;;;;5063871;28;20247;-72
2024/03/06 11:01:12;;;;;;;64.80;37.03;;;;;;;;;;5064094;28;20205;-71
2024/03/06 11:03:38;;;;;;;64.75;35.88;;;;;;;;;;5057333;28;20215;-72
2024/03/06 11:06:03;;;;;;;63.55;36.80;;;;;;;;;;5065440;28;20259;-72
2024/03/06 11:08:30;;;;;;;64.88;37.63;;;;;;;;;;5065837;28;20181;-72
2024/03/06 11:11:20;;;;;;;64.20;36.40;;;;;;;;;;5071025;28;20207;-72
2024/03/06 11:13:46;;;;;;;59.85;34.80;;;;;;;;;;5061518;28;20612;-72
2024/03/06 11:16:11;;;;;;;62.47;35.15;;;;;;;;;;5067581;28;20276;-72
2024/03/06 11:18:37;;;;;;;56.58;35.42;;;;;;;;;;5063123;28;20316;-72
2024/03/06 11:21:02;;;;;;;68.47;36.30;;;;;;;;;;5064415;28;20204;-72
2024/03/06 11:23:28;;;;;;;61.42;35.92;;;;;;;;;;5067616;28;20184;-72
2024/03/06 11:25:53;;;;;;;59.65;33.90;;;;;;;;;;5059317;28;20712;-72
2024/03/06 11:28:21;;;;;;;54.50;33.20;;;;;;;;;;5068639;28;20189;-72
2024/03/06 11:30:59;;;;;;;54.08;32.58;;;;;;;;;;5070648;28;20189;-72
2024/03/06 11:33:41;;;;;;;55.67;33.58;;;;;;;;;;5069486;28;20561;-71
2024/03/06 11:36:28;;;;;;;55.40;33.20;;;;;;;;;;5069094;28;20611;-71
2024/03/06 11:39:03;;;;;;;59.90;32.85;;;;;;;;;;5064745;28;20204;-71
2024/03/06 11:41:48;;;;;;;59.15;32.78;;;;;;;;;;5070187;28;20635;-72
2024/03/06 11:44:21;;;;;;;62.17;34.05;;;;;;;;;;5067048;28;20185;-72
2024/03/06 11:46:48;;;;;;;56.58;33.08;;;;;;;;;;5069134;28;20181;-72
2024/03/06 11:49:21;;;;;;;53.55;32.25;;;;;;;;;;5055182;28;20177;-72
2024/03/06 11:51:53;;;;;;;61.78;32.92;;;;;;;;;;5061402;28;20601;-72
2024/03/06 11:54:23;;;;;;;58.72;33.03;;;;;;;;;;5066052;28;20590;-72
2024/03/06 11:56:50;;;;;;;59.22;32.95;;;;;;;;;;5062807;28;20272;-72
2024/03/06 11:59:16;;;;;;;57.80;32.38;;;;;;;;;;5066381;28;20192;-72
2024/03/06 12:01:42;;;;;;;52.47;29.98;;;;;;;;;;5061766;28;20327;-72
2024/03/06 12:04:07;;;;;;;56.45;33.15;;;;;;;;;;5060289;28;20196;-72
2024/03/06 12:06:33;;;;;;;54.03;30.55;;;;;;;;;;5061135;28;20185;-72
2024/03/06 12:08:59;;;;;;;59.83;31.05;;;;;;;;;;5053061;28;20468;-72
2024/03/06 12:11:25;;;;;;;54.53;30.20;;;;;;;;;;5069196;28;20259;-72
2024/03/06 12:13:55;;;;;;;56.63;31.52;;;;;;;;;;5074983;28;20598;-72
2024/03/06 12:16:21;;;;;;;56.92;31.73;;;;;;;;;;5084602;28;20219;-72
2024/03/06 12:18:46;;;;;;;56.72;30.05;;;;;;;;;;5044016;28;20200;-72
2024/03/06 12:21:13;;;;;;;53.47;29.75;;;;;;;;;;5050452;28;20202;-72
2024/03/06 12:23:39;;;;;;;52.15;29.15;;;;;;;;;;5062373;28;20663;-72
2024/03/06 12:26:10;;;;;;;50.47;29.33;;;;;;;;;;5051337;28;20185;-72
2024/03/06 12:28:39;;;;;;;50.72;29.42;;;;;;;;;;5067436;28;20189;-71
2024/03/06 12:31:07;;;;;;;48.03;29.17;;;;;;;;;;5070239;28;20185;-72
2024/03/06 12:33:36;;;;;;;49.28;28.42;;;;;;;;;;5065363;28;20687;-72
2024/03/06 12:36:10;;;;;;;47.83;28.52;;;;;;;;;;5081860;28;20221;-72
2024/03/06 12:38:36;;;;;;;52.50;29.58;;;;;;;;;;5064836;28;20188;-72
2024/03/06 12:41:02;;;;;;;47.00;28.67;;;;;;;;;;5068375;28;20199;-72
2024/03/06 12:43:30;;;;;;;52.08;29.45;;;;;;;;;;5059204;28;20194;-72
2024/03/06 12:45:57;;;;;;;48.25;27.67;;;;;;;;;;5066427;28;20595;-72
2024/03/06 12:48:23;;;;;;;51.65;28.90;;;;;;;;;;5058955;28;20595;-72
2024/03/06 12:50:51;;;;;;;42.80;26.67;;;;;;;;;;5082091;28;20191;-72
2024/03/06 12:53:21;;;;;;;44.90;27.55;;;;;;;;;;5067614;28;20271;-72
2024/03/06 12:55:47;;;;;;;48.58;28.40;;;;;;;;;;5068727;28;20705;-73
2024/03/06 12:58:13;;;;;;;47.60;27.98;;;;;;;;;;5070241;28;20185;-73
2024/03/06 13:00:38;;;;;;;43.70;26.75;;;;;;;;;;5070057;28;20253;-72
2024/03/06 13:03:05;;;;;;;45.40;27.17;;;;;;;;;;5068939;28;20943;-72
2024/03/06 13:05:31;;;;;;;41.97;26.23;;;;;;;;;;5058240;28;20197;-73
2024/03/06 13:07:56;;;;;;;43.88;25.00;;;;;;;;;;5066926;28;20180;-73
2024/03/06 13:10:22;;;;;;;46.80;27.27;;;;;;;;;;5079788;28;20192;-73
2024/03/06 13:12:47;;;;;;;43.58;27.38;;;;;;;;;;5068006;28;20206;-73
2024/03/06 13:15:13;;;;;;;45.80;27.30;;;;;;;;;;5070193;28;20192;-73
2024/03/06 13:17:39;;;;;;;39.58;25.58;;;;;;;;;;5068397;28;20273;-73
2024/03/06 13:20:09;;;;;;;38.22;25.10;;;;;;;;;;5065858;28;20208;-73
2024/03/06 13:22:35;;;;;;;34.60;22.98;;;;;;;;;;5069500;28;20223;-73
2024/03/06 13:25:00;;;;;;;37.95;23.60;;;;;;;;;;5069379;28;20172;-73
2024/03/06 13:27:25;;;;;;;34.92;21.33;;;;;;;;;;5062417;28;20183;-73
2024/03/06 13:29:51;;;;;;;32.72;22.13;;;;;;;;;;5067457;28;20193;-72
2024/03/06 13:32:17;;;;;;;32.90;20.77;;;;;;;;;;5050144;28;20231;-72
2024/03/06 13:34:43;;;;;;;34.95;22.48;;;;;;;;;;5062295;28;20301;-73
2024/03/06 13:37:10;;;;;;;32.72;21.13;;;;;;;;;;5068035;28;20193;-73
2024/03/06 13:39:35;;;;;;;31.80;21.23;;;;;;;;;;5057738;28;20603;-73
2024/03/06 13:42:01;;;;;;;36.45;22.10;;;;;;;;;;5066849;28;20299;-73
2024/03/06 13:44:26;;;;;;;35.10;22.08;;;;;;;;;;5068870;28;20203;-73
2024/03/06 13:46:52;;;;;;;37.35;22.88;;;;;;;;;;5047086;28;20181;-73
2024/03/06 13:49:36;;;;;;;34.97;22.52;;;;;;;;;;5064941;28;20192;-72
2024/03/06 13:52:02;;;;;;;36.85;23.27;;;;;;;;;;5062544;28;20231;-72
2024/03/06 13:54:27;;;;;;;36.78;23.95;;;;;;;;;;5067249;28;20177;-73
2024/03/06 13:56:55;;;;;;;37.88;23.58;;;;;;;;;;5069262;28;20191;-73
2024/03/06 13:59:21;;;;;;;40.58;22.90;;;;;;;;;;5067188;28;20196;-73
2024/03/06 14:01:48;;;;;;;35.65;22.77;;;;;;;;;;5067728;28;20303;-73
2024/03/06 14:04:14;;;;;;;34.53;22.50;;;;;;;;;;5053775;28;20181;-72
2024/03/06 14:06:39;;;;;;;36.58;21.55;;;;;;;;;;5066079;28;20680;-72
2024/03/06 14:09:05;;;;;;;32.30;21.73;;;;;;;;;;5058948;28;20193;-73
2024/03/06 14:11:35;;;;;;;33.80;21.00;;;;;;;;;;5058812;28;20204;-73